»·PEaware :: AAL953 KMRY-KPSP

AAL953 :: KMRY-KPSP

FLIGHT INFORMATION

Flight Status: Arrived
Operator:
American Airlines
More flights by this operator :: More flights under this callsign
Pilot: Max W. (2591)
Aircraft: BOEING 777-200
(B772)
More flights by this aircraft type
Origin: KMRY Monterey Peninsula
United States
Destination: KPSP Palm Springs Intl
United States
More flights between these airports :: More routes between these airports
Route: +MRY4 MRY SERFR FFLEX SIZLR1
File this flight plan on PilotEdge
Remarks:
Altitude:
(Current/Filed)
33,000ft
Speed:
(Current/Filed)
450kts
Departed: 09-Dec-17 03:03 PM
Arrived: 09-Dec-17 03:57 PM
Distance/Time
Traveled:
309nm/0:54
Distance/Time
To Go:
Arrived

Flight Plot

Page will automatically refresh every two minutes.

Flight plan parsing failed; only flown route is shown


Map Options




Map Legend


Flown Route
Filed Route
Departure Airport
Arrival Airport
Navaid (VOR, NDB)
Fix

Horizontal Profiles

Position Reports

Time Latitude Longitude Heading Altitude Ground
Speed
09-Dec-17 14:39 36.587632 -121.849959 238 218ft 0kts
09-Dec-17 14:40 36.587632 -121.849959 238 218ft 0kts
09-Dec-17 14:41 36.587632 -121.849959 238 218ft 0kts
09-Dec-17 14:42 36.587632 -121.849959 238 218ft 0kts
09-Dec-17 14:43 36.587632 -121.849959 238 218ft 0kts
09-Dec-17 14:44 36.587632 -121.849959 238 218ft 0kts
09-Dec-17 14:45 36.587632 -121.849959 238 218ft 0kts
09-Dec-17 14:46 36.587632 -121.849959 238 218ft 0kts
09-Dec-17 14:47 36.587632 -121.849959 238 218ft 0kts
09-Dec-17 14:48 36.587632 -121.849959 238 218ft 0kts
09-Dec-17 14:49 36.587632 -121.849959 238 218ft 0kts
09-Dec-17 14:50 36.587632 -121.849959 238 218ft 0kts
09-Dec-17 14:51 36.587632 -121.849959 238 218ft 0kts
09-Dec-17 14:52 36.587632 -121.849959 238 218ft 0kts
09-Dec-17 14:53 36.587632 -121.849959 238 218ft 0kts
09-Dec-17 14:54 36.587632 -121.849959 238 218ft 0kts
09-Dec-17 14:55 36.587632 -121.849959 238 218ft 0kts
09-Dec-17 14:56 36.587632 -121.849959 238 218ft 0kts
09-Dec-17 14:57 36.587632 -121.849959 238 218ft 0kts
09-Dec-17 14:58 36.587632 -121.849959 238 218ft 0kts
09-Dec-17 14:59 36.587632 -121.849959 238 218ft 0kts
09-Dec-17 15:00 36.587632 -121.849959 238 218ft 0kts
09-Dec-17 15:01 36.587711 -121.849799 238 218ft 2kts
09-Dec-17 15:02 36.587942 -121.849533 205 218ft 0kts
09-Dec-17 15:03 36.587941 -121.849533 205 218ft 0kts
09-Dec-17 15:04 36.587941 -121.849533 205 218ft 0kts
09-Dec-17 15:05 36.587113 -121.847163 111 218ft 19kts
09-Dec-17 15:06 36.584972 -121.841253 113 218ft 17kts
09-Dec-17 15:07 36.582816 -121.834016 83 218ft 27kts
09-Dec-17 15:08 36.589060 -121.850678 291 269ft 192kts
09-Dec-17 15:09 36.629663 -121.892149 11 4440ft 229kts
09-Dec-17 15:10 36.647926 -121.820271 123 7791ft 276kts
09-Dec-17 15:11 36.581863 -121.762877 146 11357ft 316kts
09-Dec-17 15:12 36.498548 -121.697490 146 14004ft 383kts
09-Dec-17 15:13 36.405382 -121.625046 146 17604ft 409kts
09-Dec-17 15:14 36.305802 -121.547617 146 21065ft 428kts
09-Dec-17 15:15 36.202720 -121.468024 147 24162ft 446kts
09-Dec-17 15:16 36.096557 -121.383207 139 26905ft 465kts
09-Dec-17 15:17 36.018869 -121.251873 119 29424ft 483kts
09-Dec-17 15:18 35.957308 -121.106071 118 32399ft 477kts
09-Dec-17 15:19 35.894951 -120.960220 118 33289ft 491kts
09-Dec-17 15:20 35.831161 -120.810521 119 33291ft 491kts
09-Dec-17 15:21 35.767120 -120.662151 119 33290ft 491kts
09-Dec-17 15:22 35.702911 -120.514215 119 33289ft 491kts
09-Dec-17 15:23 35.638276 -120.365959 119 33282ft 491kts
09-Dec-17 15:24 35.573658 -120.218452 119 33275ft 490kts
09-Dec-17 15:26 35.508933 -120.071256 119 33274ft 490kts
09-Dec-17 15:27 35.443752 -119.923720 119 33292ft 491kts
09-Dec-17 15:28 35.378477 -119.776599 119 33310ft 492kts
09-Dec-17 15:29 35.312814 -119.629249 119 33325ft 492kts
09-Dec-17 15:30 35.247109 -119.482453 119 33334ft 492kts
09-Dec-17 15:31 35.181180 -119.335785 120 33334ft 493kts
09-Dec-17 15:32 35.114759 -119.188657 120 33341ft 493kts
09-Dec-17 15:33 35.048310 -119.042096 120 33355ft 494kts
09-Dec-17 15:34 34.981674 -118.895751 120 33393ft 494kts
09-Dec-17 15:35 34.914510 -118.748881 120 33409ft 494kts
09-Dec-17 15:36 34.850160 -118.608733 120 32111ft 465kts
09-Dec-17 15:37 34.787869 -118.473605 119 30262ft 451kts
09-Dec-17 15:38 34.726942 -118.341591 119 28251ft 442kts
09-Dec-17 15:39 34.667293 -118.212955 119 26286ft 432kts
09-Dec-17 15:40 34.608489 -118.087242 119 24352ft 422kts
09-Dec-17 15:41 34.553436 -117.963586 114 23358ft 415kts
09-Dec-17 15:42 34.503068 -117.838220 116 23341ft 414kts
09-Dec-17 15:43 34.451513 -117.713098 116 23267ft 414kts
09-Dec-17 15:44 34.400531 -117.587647 115 21267ft 411kts
09-Dec-17 15:45 34.350597 -117.466220 115 19525ft 395kts
09-Dec-17 15:46 34.302368 -117.349207 115 17827ft 380kts
09-Dec-17 15:47 34.251194 -117.238395 118 16336ft 369kts
09-Dec-17 15:48 34.200832 -117.130507 118 16007ft 369kts
09-Dec-17 15:49 34.150893 -117.024575 118 16047ft 344kts
09-Dec-17 15:50 34.106439 -116.930116 118 16091ft 312kts
09-Dec-17 15:51 34.063882 -116.839062 118 14790ft 310kts
09-Dec-17 15:52 34.026139 -116.747197 108 13974ft 304kts
09-Dec-17 15:53 34.001452 -116.653860 106 12897ft 268kts
09-Dec-17 15:54 33.979679 -116.572644 106 12206ft 242kts
09-Dec-17 15:55 33.939965 -116.507976 137 10733ft 243kts
09-Dec-17 15:56 33.886060 -116.458947 140 8733ft 239kts
09-Dec-17 15:57 33.833171 -116.411606 140 6789ft 235kts
09-Dec-17 15:58 33.781903 -116.364996 140 4892ft 225kts
09-Dec-17 15:59 33.725822 -116.365304 221 2606ft 219kts
09-Dec-17 16:00 33.736289 -116.420039 325 2099ft 186kts
09-Dec-17 16:01 33.774260 -116.453997 309 1759ft 158kts
09-Dec-17 16:02 33.807566 -116.487993 322 903ft 150kts
09-Dec-17 16:03 33.833428 -116.511590 268 490ft 24kts
09-Dec-17 16:04 33.832985 -116.512428 184 490ft 1kts
09-Dec-17 16:05 33.827434 -116.507700 143 490ft 34kts

Navigation Log

Ident Type
Flight plan parsing failed, navigation log unavailable